createdAt,value
2018-09-10T00:00:23.535Z,95978.00
2018-09-10T00:02:54.334Z,95981.00
2018-09-10T00:05:25.232Z,95983.00
2018-09-10T00:07:56.035Z,95988.00
2018-09-10T00:10:26.975Z,95980.00
2018-09-10T00:12:57.773Z,95982.00
2018-09-10T00:15:28.595Z,95983.00
2018-09-10T00:17:59.406Z,95987.00
2018-09-10T00:20:30.227Z,95989.00
2018-09-10T00:23:01.286Z,95987.00
2018-09-10T00:25:32.163Z,95988.00
2018-09-10T00:28:02.915Z,95983.00
2018-09-10T00:30:33.754Z,95981.00
2018-09-10T00:33:04.569Z,95985.00
2018-09-10T00:35:35.436Z,95990.00
2018-09-10T00:38:06.186Z,95988.00
2018-09-10T00:40:37.075Z,95986.00
2018-09-10T00:43:08.090Z,95992.00
2018-09-10T00:45:38.942Z,95992.00
2018-09-10T00:48:09.749Z,95990.00
2018-09-10T00:50:40.645Z,95993.00
2018-09-10T00:53:11.205Z,95993.00
2018-09-10T00:55:41.960Z,95995.00
2018-09-10T00:58:12.788Z,95989.00
2018-09-10T01:00:43.862Z,95992.00
2018-09-10T01:03:14.671Z,95995.00
2018-09-10T01:05:45.438Z,95998.00
2018-09-10T01:08:16.159Z,95999.00
2018-09-10T01:10:46.955Z,96005.00
2018-09-10T01:13:17.678Z,96003.00
2018-09-10T01:15:48.415Z,96003.00
2018-09-10T01:18:19.123Z,96001.00
2018-09-10T01:20:49.834Z,95998.00
2018-09-10T01:23:20.547Z,96005.00
2018-09-10T01:25:51.303Z,96010.00
2018-09-10T01:28:22.018Z,96010.00
2018-09-10T01:30:52.750Z,96013.00
2018-09-10T01:33:28.750Z,96015.00
2018-09-10T01:35:59.654Z,96005.00
2018-09-10T01:38:30.404Z,96003.00
2018-09-10T01:41:01.123Z,96005.00
2018-09-10T01:43:31.774Z,96004.00
2018-09-10T01:46:02.930Z,96003.00
2018-09-10T01:48:33.788Z,96002.00
2018-09-10T01:51:04.690Z,96004.00
2018-09-10T01:53:35.550Z,96005.00
2018-09-10T01:56:07.481Z,96009.00
2018-09-10T01:58:38.400Z,96007.00
2018-09-10T02:01:09.466Z,96005.00
2018-09-10T02:03:40.328Z,96010.00
2018-09-10T02:06:11.361Z,96009.00
2018-09-10T02:08:42.258Z,96008.00
2018-09-10T02:11:13.221Z,96002.00
2018-09-10T02:13:44.184Z,95997.00
2018-09-10T02:16:16.937Z,95998.00
2018-09-10T02:18:48.458Z,95993.00
2018-09-10T02:21:19.597Z,95994.00
2018-09-10T02:23:50.458Z,95991.00
2018-09-10T02:26:21.510Z,95993.00
2018-09-10T02:28:52.358Z,95985.00
2018-09-10T02:31:23.212Z,95987.00
2018-09-10T02:33:54.127Z,95988.00
2018-09-10T02:36:25.034Z,95989.00
2018-09-10T02:38:55.900Z,95987.00
2018-09-10T02:41:26.897Z,95982.00
2018-09-10T02:43:57.821Z,95985.00
2018-09-10T02:46:28.838Z,95990.00
2018-09-10T02:48:59.730Z,95994.00
2018-09-10T02:51:30.718Z,95993.00
2018-09-10T02:54:01.638Z,95994.00
2018-09-10T02:56:32.578Z,95994.00
2018-09-10T02:59:03.373Z,95990.00
2018-09-10T03:01:34.157Z,95990.00
2018-09-10T03:04:04.863Z,95989.00
2018-09-10T03:06:35.620Z,95985.00
2018-09-10T03:09:08.781Z,95984.00
2018-09-10T03:11:39.650Z,95988.00
2018-09-10T03:14:10.753Z,95988.00
2018-09-10T03:16:41.530Z,95985.00
2018-09-10T03:19:12.250Z,95987.00
2018-09-10T03:21:43.044Z,95992.00
2018-09-10T03:24:13.894Z,95985.00
2018-09-10T03:26:44.655Z,95986.00
2018-09-10T03:29:15.333Z,95983.00
2018-09-10T03:31:46.110Z,95985.00
2018-09-10T03:34:16.785Z,95988.00
2018-09-10T03:36:47.798Z,95990.00
2018-09-10T03:39:18.524Z,95988.00
2018-09-10T03:41:50.245Z,95988.00
2018-09-10T03:44:20.881Z,95990.00
2018-09-10T03:46:51.503Z,95992.00
2018-09-10T03:49:22.399Z,95996.00
2018-09-10T03:51:53.234Z,95992.00
2018-09-10T03:54:24.279Z,95996.00
2018-09-10T03:56:55.079Z,95994.00
2018-09-10T03:59:25.710Z,95989.00
2018-09-10T04:01:56.433Z,95992.00
2018-09-10T04:04:27.051Z,95990.00
2018-09-10T04:06:57.731Z,95999.00
2018-09-10T04:09:28.418Z,96002.00
2018-09-10T04:11:59.388Z,96007.00
2018-09-10T04:14:30.259Z,96006.00
2018-09-10T04:17:01.212Z,96011.00
2018-09-10T04:19:32.020Z,96009.00
2018-09-10T04:22:03.027Z,96002.00
2018-09-10T04:24:33.751Z,96006.00
2018-09-10T04:27:04.855Z,96011.00
2018-09-10T04:29:35.844Z,96014.00
2018-09-10T04:32:06.746Z,96008.00
2018-09-10T04:34:37.491Z,96016.00
2018-09-10T04:37:08.396Z,96019.00
2018-09-10T04:39:39.256Z,96009.00
2018-09-10T04:42:10.013Z,96019.00
2018-09-10T04:44:40.787Z,96017.00
2018-09-10T04:47:11.659Z,96029.00
2018-09-10T04:49:42.508Z,96022.00
2018-09-10T04:52:13.279Z,96025.00
2018-09-10T04:54:43.901Z,96027.00
2018-09-10T04:57:14.990Z,96029.00
2018-09-10T04:59:45.764Z,96041.00
2018-09-10T05:02:16.531Z,96047.00
2018-09-10T05:04:47.599Z,96044.00
2018-09-10T05:07:18.280Z,96051.00
2018-09-10T05:09:49.167Z,96059.00
2018-09-10T05:12:19.819Z,96055.00
2018-09-10T05:14:50.779Z,96055.00
2018-09-10T05:17:21.915Z,96066.00
2018-09-10T05:19:53.291Z,96070.00
2018-09-10T05:22:24.290Z,96078.00
2018-09-10T05:24:55.413Z,96080.00
2018-09-10T05:27:26.339Z,96084.00
2018-09-10T05:29:57.259Z,96095.00
2018-09-10T05:32:28.062Z,96093.00
2018-09-10T05:34:59.202Z,96094.00
2018-09-10T05:37:30.455Z,96096.00
2018-09-10T05:40:01.564Z,96099.00
2018-09-10T05:42:33.138Z,96102.00
2018-09-10T05:45:04.813Z,96105.00
2018-09-10T05:47:35.798Z,96100.00
2018-09-10T05:50:06.946Z,96102.00
2018-09-10T05:52:38.471Z,96102.00
2018-09-10T05:55:09.380Z,96098.00
2018-09-10T05:57:40.306Z,96104.00
2018-09-10T06:00:11.912Z,96106.00
2018-09-10T06:02:43.206Z,96108.00
2018-09-10T06:05:14.142Z,96108.00
2018-09-10T06:07:45.106Z,96110.00
2018-09-10T06:10:16.102Z,96112.00
2018-09-10T06:12:47.022Z,96111.00
2018-09-10T06:15:18.487Z,96101.00
2018-09-10T06:17:49.342Z,96105.00
2018-09-10T06:20:20.293Z,96103.00
2018-09-10T06:22:51.260Z,96102.00
2018-09-10T06:25:22.151Z,96107.00
2018-09-10T06:27:53.398Z,96107.00
2018-09-10T06:30:24.653Z,96109.00
2018-09-10T06:32:55.418Z,96106.00
2018-09-10T06:35:26.277Z,96106.00
2018-09-10T06:37:57.299Z,96104.00
2018-09-10T06:40:28.764Z,96116.00
2018-09-10T06:42:59.725Z,96115.00
2018-09-10T06:45:31.022Z,96112.00
2018-09-10T06:48:03.139Z,96110.00
2018-09-10T06:50:33.980Z,96116.00
2018-09-10T06:53:04.921Z,96112.00
2018-09-10T06:55:35.780Z,96116.00
2018-09-10T06:58:07.266Z,96119.00
2018-09-10T07:00:38.094Z,96117.00
2018-09-10T07:03:09.058Z,96118.00
2018-09-10T07:05:39.939Z,96121.00
2018-09-10T07:08:10.889Z,96122.00
2018-09-10T07:10:41.854Z,96130.00
2018-09-10T07:13:12.778Z,96132.00
2018-09-10T07:15:43.559Z,96127.00
2018-09-10T07:18:14.413Z,96128.00
2018-09-10T07:20:45.256Z,96125.00
2018-09-10T07:23:15.903Z,96122.00
2018-09-10T07:25:47.175Z,96126.00
2018-09-10T07:28:17.991Z,96124.00
2018-09-10T07:30:48.810Z,96119.00
2018-09-10T07:33:19.672Z,96110.00
2018-09-10T07:35:50.228Z,96110.00
2018-09-10T07:38:20.919Z,96116.00
2018-09-10T07:40:51.563Z,96117.00
2018-09-10T07:43:22.305Z,96117.00
2018-09-10T07:45:53.049Z,96121.00
2018-09-10T07:48:23.782Z,96125.00
2018-09-10T07:50:54.435Z,96119.00
2018-09-10T07:53:25.731Z,96113.00
2018-09-10T07:55:56.332Z,96116.00
2018-09-10T07:58:27.006Z,96116.00
2018-09-10T08:00:57.810Z,96114.00
2018-09-10T08:03:28.547Z,96111.00
2018-09-10T08:05:59.180Z,96110.00
2018-09-10T08:08:29.857Z,96114.00
2018-09-10T08:11:00.603Z,96107.00
2018-09-10T08:13:31.277Z,96100.00
2018-09-10T08:16:01.913Z,96101.00
2018-09-10T08:18:33.116Z,96105.00
2018-09-10T08:21:04.095Z,96100.00
2018-09-10T08:23:35.059Z,96094.00
2018-09-10T08:26:05.851Z,96086.00
2018-09-10T08:28:36.765Z,96086.00
2018-09-10T08:31:07.735Z,96092.00
2018-09-10T08:33:38.484Z,96091.00
2018-09-10T08:36:09.218Z,96078.00
2018-09-10T08:38:40.065Z,96088.00
2018-09-10T08:41:10.827Z,96092.00
2018-09-10T08:43:43.010Z,96095.00
2018-09-10T08:46:13.775Z,96091.00
2018-09-10T08:48:45.414Z,96090.00
2018-09-10T08:51:16.209Z,96086.00
2018-09-10T08:53:46.930Z,96084.00
2018-09-10T08:56:18.002Z,96083.00
2018-09-10T08:58:48.651Z,96081.00
2018-09-10T09:01:19.402Z,96081.00
2018-09-10T09:03:50.083Z,96077.00
2018-09-10T09:06:20.631Z,96073.00
2018-09-10T09:08:51.395Z,96068.00
2018-09-10T09:11:22.199Z,96067.00
2018-09-10T09:13:52.882Z,96063.00
2018-09-10T09:16:23.816Z,96060.00
2018-09-10T09:18:54.863Z,96065.00
2018-09-10T09:21:25.903Z,96059.00
2018-09-10T09:23:57.181Z,96060.00
2018-09-10T09:26:28.386Z,96057.00
2018-09-10T09:28:59.398Z,96055.00
2018-09-10T09:31:30.223Z,96050.00
2018-09-10T09:34:01.064Z,96048.00
2018-09-10T09:36:37.109Z,96048.00
2018-09-10T09:39:13.914Z,96045.00
2018-09-10T09:41:50.028Z,96044.00
2018-09-10T09:44:26.472Z,96039.00
2018-09-10T09:46:57.353Z,96035.00
2018-09-10T09:49:28.576Z,96036.00
2018-09-10T09:51:59.583Z,96033.00
2018-09-10T09:54:30.463Z,96037.00
2018-09-10T09:57:01.489Z,96040.00
2018-09-10T09:59:32.301Z,96036.00
2018-09-10T10:02:08.488Z,96041.00
2018-09-10T10:04:39.619Z,96039.00
2018-09-10T10:07:10.550Z,96033.00
2018-09-10T10:09:41.367Z,96034.00
2018-09-10T10:12:12.442Z,96027.00
2018-09-10T10:14:43.672Z,96022.00
2018-09-10T10:17:14.727Z,96018.00
2018-09-10T10:19:45.718Z,96014.00
2018-09-10T10:22:17.051Z,96015.00
2018-09-10T10:24:47.970Z,96014.00
2018-09-10T10:27:18.831Z,96007.00
2018-09-10T10:29:49.818Z,96007.00
2018-09-10T10:32:20.730Z,96005.00
2018-09-10T10:34:51.613Z,96007.00
2018-09-10T10:37:22.633Z,96004.00
2018-09-10T10:39:53.505Z,96000.00
2018-09-10T10:42:24.510Z,95995.00
2018-09-10T10:44:55.431Z,95989.00
2018-09-10T10:47:26.681Z,95987.00
2018-09-10T10:49:57.663Z,95978.00
2018-09-10T10:52:28.725Z,95978.00
2018-09-10T10:54:59.900Z,95981.00
2018-09-10T10:57:31.064Z,95983.00
2018-09-10T11:00:02.087Z,95984.00
2018-09-10T11:02:33.032Z,95983.00
2018-09-10T11:05:03.962Z,95971.00
2018-09-10T11:07:34.675Z,95972.00
2018-09-10T11:10:06.184Z,95975.00
2018-09-10T11:12:36.962Z,95979.00
2018-09-10T11:15:07.767Z,95979.00
2018-09-10T11:17:39.103Z,95976.00
2018-09-10T11:20:10.215Z,95976.00
2018-09-10T11:22:41.104Z,95976.00
2018-09-10T11:25:11.883Z,95975.00
2018-09-10T11:27:42.710Z,95967.00
2018-09-10T11:30:13.496Z,95958.00
2018-09-10T11:32:44.359Z,95958.00
2018-09-10T11:35:15.087Z,95955.00
2018-09-10T11:37:45.832Z,95945.00
2018-09-10T11:40:16.623Z,95939.00
2018-09-10T11:42:47.579Z,95941.00
2018-09-10T11:45:18.384Z,95940.00
2018-09-10T11:47:49.152Z,95937.00
2018-09-10T11:50:20.001Z,95931.00
2018-09-10T11:52:50.778Z,95930.00
2018-09-10T11:55:21.864Z,95930.00
2018-09-10T11:57:52.784Z,95927.00
2018-09-10T12:00:24.340Z,95928.00
2018-09-10T12:02:55.748Z,95929.00
2018-09-10T12:05:27.401Z,95931.00
2018-09-10T12:07:59.174Z,95930.00
2018-09-10T12:10:30.806Z,95925.00
2018-09-10T12:13:02.263Z,95919.00
2018-09-10T12:15:33.194Z,95919.00
2018-09-10T12:18:04.071Z,95918.00
2018-09-10T12:20:34.901Z,95911.00
2018-09-10T12:23:05.855Z,95910.00
2018-09-10T12:25:36.758Z,95912.00
2018-09-10T12:28:08.095Z,95911.00
2018-09-10T12:30:39.133Z,95910.00
2018-09-10T12:33:10.111Z,95912.00
2018-09-10T12:35:41.311Z,95912.00
2018-09-10T12:38:12.291Z,95912.00
2018-09-10T12:40:43.806Z,95918.00
2018-09-10T12:43:14.692Z,95915.00
2018-09-10T12:45:45.581Z,95917.00
2018-09-10T12:48:16.699Z,95918.00
2018-09-10T12:50:47.615Z,95916.00
2018-09-10T12:53:18.896Z,95917.00
2018-09-10T12:55:50.051Z,95913.00
2018-09-10T12:58:20.963Z,95907.00
2018-09-10T13:00:51.794Z,95908.00
2018-09-10T13:03:22.951Z,95910.00
2018-09-10T13:05:54.056Z,95914.00
2018-09-10T13:08:25.011Z,95921.00
2018-09-10T13:10:55.912Z,95918.00
2018-09-10T13:13:26.831Z,95915.00
2018-09-10T13:15:57.795Z,95919.00
2018-09-10T13:18:28.839Z,95914.00
2018-09-10T13:21:00.611Z,95907.00
2018-09-10T13:23:31.551Z,95906.00
2018-09-10T13:26:02.483Z,95903.00
2018-09-10T13:28:33.363Z,95904.00
2018-09-10T13:31:04.243Z,95901.00
2018-09-10T13:33:35.083Z,95899.00
2018-09-10T13:36:05.928Z,95893.00
2018-09-10T13:38:36.837Z,95899.00
2018-09-10T13:41:08.080Z,95903.00
2018-09-10T13:43:41.213Z,95903.00
2018-09-10T13:46:12.196Z,95899.00
2018-09-10T13:48:43.256Z,95905.00
2018-09-10T13:51:14.078Z,95898.00
2018-09-10T13:53:45.139Z,95892.00
2018-09-10T13:56:15.994Z,95889.00
2018-09-10T13:58:47.683Z,95883.00
2018-09-10T14:01:19.082Z,95887.00
2018-09-10T14:03:49.987Z,95883.00
2018-09-10T14:06:21.446Z,95889.00
2018-09-10T14:08:52.525Z,95884.00
2018-09-10T14:11:23.753Z,95892.00
2018-09-10T14:13:54.675Z,95891.00
2018-09-10T14:16:25.608Z,95885.00
2018-09-10T14:18:56.625Z,95884.00
2018-09-10T14:21:28.422Z,95882.00
2018-09-10T14:23:59.232Z,95882.00
2018-09-10T14:26:30.226Z,95882.00
2018-09-10T14:29:01.280Z,95875.00
2018-09-10T14:31:32.424Z,95876.00
2018-09-10T14:34:06.935Z,95874.00
2018-09-10T14:36:37.881Z,95871.00
2018-09-10T14:39:10.105Z,95875.00
2018-09-10T14:41:41.085Z,95873.00
2018-09-10T14:44:12.179Z,95877.00
2018-09-10T14:46:43.205Z,95870.00
2018-09-10T14:49:14.157Z,95870.00
2018-09-10T14:51:45.676Z,95873.00
2018-09-10T14:54:16.520Z,95880.00
2018-09-10T14:56:47.659Z,95879.00
2018-09-10T14:59:18.436Z,95876.00
2018-09-10T15:01:49.170Z,95877.00
2018-09-10T15:04:19.827Z,95880.00
2018-09-10T15:06:50.795Z,95882.00
2018-09-10T15:09:21.880Z,95889.00
2018-09-10T15:11:52.624Z,95884.00
2018-09-10T15:14:23.378Z,95882.00
2018-09-10T15:16:54.217Z,95885.00
2018-09-10T15:19:25.043Z,95881.00
2018-09-10T15:21:56.203Z,95883.00
2018-09-10T15:24:27.188Z,95882.00
2018-09-10T15:26:58.247Z,95880.00
2018-09-10T15:29:29.019Z,95886.00
2018-09-10T15:32:00.183Z,95889.00
2018-09-10T15:34:31.043Z,95897.00
2018-09-10T15:37:01.955Z,95898.00
2018-09-10T15:39:33.314Z,95899.00
2018-09-10T15:42:04.325Z,95904.00
2018-09-10T15:44:35.336Z,95901.00
2018-09-10T15:47:06.457Z,95902.00
2018-09-10T15:49:37.549Z,95905.00
2018-09-10T15:52:08.841Z,95905.00
2018-09-10T15:54:40.018Z,95900.00
2018-09-10T15:57:11.090Z,95908.00
2018-09-10T15:59:42.157Z,95907.00
2018-09-10T16:02:13.479Z,95910.00
2018-09-10T16:04:45.633Z,95903.00
2018-09-10T16:07:17.489Z,95895.00
2018-09-10T16:09:48.236Z,95897.00
2018-09-10T16:12:19.377Z,95912.00
2018-09-10T16:14:50.416Z,95913.00
2018-09-10T16:17:21.895Z,95916.00
2018-09-10T16:19:52.770Z,95924.00
2018-09-10T16:22:24.827Z,95923.00
2018-09-10T16:24:55.830Z,95922.00
2018-09-10T16:27:26.885Z,95911.00
2018-09-10T16:29:57.965Z,95907.00
2018-09-10T16:32:29.216Z,95908.00
2018-09-10T16:35:00.260Z,95912.00
2018-09-10T16:37:31.370Z,95917.00
2018-09-10T16:40:02.459Z,95928.00
2018-09-10T16:42:33.621Z,95929.00
2018-09-10T16:45:04.680Z,95933.00
2018-09-10T16:47:35.686Z,95929.00
2018-09-10T16:50:06.858Z,95923.00
2018-09-10T16:52:37.971Z,95922.00
2018-09-10T16:55:09.187Z,95923.00
2018-09-10T16:57:40.851Z,95926.00
2018-09-10T17:00:11.994Z,95929.00
2018-09-10T17:02:43.196Z,95931.00
2018-09-10T17:05:14.438Z,95931.00
2018-09-10T17:07:45.664Z,95934.00
2018-09-10T17:10:16.945Z,95935.00
2018-09-10T17:12:47.997Z,95937.00
2018-09-10T17:15:18.960Z,95946.00
2018-09-10T17:17:50.579Z,95946.00
2018-09-10T17:20:21.639Z,95947.00
2018-09-10T17:22:52.659Z,95952.00
2018-09-10T17:25:24.034Z,95955.00
2018-09-10T17:27:55.686Z,95952.00
2018-09-10T17:30:26.592Z,95963.00
2018-09-10T17:32:57.437Z,95960.00
2018-09-10T17:35:29.775Z,95966.00
2018-09-10T17:38:00.612Z,95965.00
2018-09-10T17:40:31.850Z,95973.00
2018-09-10T17:43:03.758Z,95977.00
2018-09-10T17:45:34.880Z,95981.00
2018-09-10T17:48:06.326Z,95985.00
2018-09-10T17:50:37.222Z,95983.00
2018-09-10T17:53:08.428Z,95985.00
2018-09-10T17:55:39.663Z,95987.00
2018-09-10T17:58:10.609Z,95994.00
2018-09-10T18:00:42.633Z,96007.00
2018-09-10T18:03:13.550Z,96008.00
2018-09-10T18:05:45.374Z,96010.00
2018-09-10T18:08:16.323Z,96007.00
2018-09-10T18:10:47.588Z,96013.00
2018-09-10T18:13:20.188Z,96019.00
2018-09-10T18:15:51.268Z,96017.00
2018-09-10T18:18:22.167Z,96023.00
2018-09-10T18:20:54.072Z,96033.00
2018-09-10T18:23:25.077Z,96041.00
2018-09-10T18:25:56.298Z,96042.00
2018-09-10T18:28:27.307Z,96051.00
2018-09-10T18:30:58.132Z,96057.00
2018-09-10T18:33:29.089Z,96051.00
2018-09-10T18:36:00.088Z,96063.00
2018-09-10T18:38:31.212Z,96065.00
2018-09-10T18:41:02.259Z,96083.00
2018-09-10T18:43:33.438Z,96084.00
2018-09-10T18:46:04.456Z,96091.00
2018-09-10T18:48:35.526Z,96087.00
2018-09-10T18:51:06.450Z,96087.00
2018-09-10T18:53:37.873Z,96096.00
2018-09-10T18:56:08.837Z,96098.00
2018-09-10T18:58:40.251Z,96103.00
2018-09-10T19:01:11.403Z,96111.00
2018-09-10T19:03:42.310Z,96112.00
2018-09-10T19:06:13.701Z,96113.00
2018-09-10T19:08:44.994Z,96118.00
2018-09-10T19:11:16.435Z,96120.00
2018-09-10T19:13:48.732Z,96114.00
2018-09-10T19:16:20.264Z,96123.00
2018-09-10T19:18:52.049Z,96128.00
2018-09-10T19:21:25.604Z,96132.00
2018-09-10T19:23:58.045Z,96130.00
2018-09-10T19:26:29.518Z,96131.00
2018-09-10T19:29:00.792Z,96129.00
2018-09-10T19:31:32.163Z,96128.00
2018-09-10T19:34:03.527Z,96133.00
2018-09-10T19:36:34.572Z,96137.00
2018-09-10T19:39:07.626Z,96138.00
2018-09-10T19:41:38.672Z,96142.00
2018-09-10T19:44:09.880Z,96149.00
2018-09-10T19:46:41.016Z,96149.00
2018-09-10T19:49:11.992Z,96143.00
2018-09-10T19:51:43.015Z,96142.00
2018-09-10T19:54:15.674Z,96135.00
2018-09-10T19:56:46.524Z,96138.00
2018-09-10T19:59:17.417Z,96141.00
2018-09-10T20:01:48.503Z,96143.00
2018-09-10T20:04:19.498Z,96144.00
2018-09-10T20:06:50.783Z,96147.00
2018-09-10T20:09:21.717Z,96145.00
2018-09-10T20:11:54.351Z,96138.00
2018-09-10T20:14:26.127Z,96137.00
2018-09-10T20:16:57.538Z,96140.00
2018-09-10T20:19:29.032Z,96140.00
2018-09-10T20:22:00.053Z,96149.00
2018-09-10T20:24:31.264Z,96140.00
2018-09-10T20:27:02.179Z,96145.00
2018-09-10T20:29:33.392Z,96151.00
2018-09-10T20:32:04.426Z,96156.00
2018-09-10T20:34:35.407Z,96164.00
2018-09-10T20:37:06.517Z,96165.00
2018-09-10T20:39:37.548Z,96157.00
2018-09-10T20:42:08.661Z,96153.00
2018-09-10T20:44:39.736Z,96157.00
2018-09-10T20:47:10.940Z,96161.00
2018-09-10T20:49:42.031Z,96162.00
2018-09-10T20:52:13.593Z,96167.00
2018-09-10T20:54:44.535Z,96161.00
2018-09-10T20:57:16.249Z,96156.00
2018-09-10T20:59:47.834Z,96167.00
2018-09-10T21:02:18.917Z,96164.00
2018-09-10T21:04:50.071Z,96165.00
2018-09-10T21:07:20.990Z,96161.00
2018-09-10T21:09:51.998Z,96169.00
2018-09-10T21:12:22.929Z,96172.00
2018-09-10T21:14:53.895Z,96173.00
2018-09-10T21:17:24.765Z,96176.00
2018-09-10T21:19:55.799Z,96179.00
2018-09-10T21:22:26.721Z,96174.00
2018-09-10T21:24:57.710Z,96181.00
2018-09-10T21:27:28.724Z,96180.00
2018-09-10T21:29:59.505Z,96181.00
2018-09-10T21:32:30.723Z,96174.00
2018-09-10T21:35:01.398Z,96175.00
2018-09-10T21:37:32.184Z,96175.00
2018-09-10T21:40:03.246Z,96179.00
2018-09-10T21:42:34.406Z,96190.00
2018-09-10T21:45:05.766Z,96193.00
2018-09-10T21:47:36.748Z,96199.00
2018-09-10T21:50:07.788Z,96210.00
2018-09-10T21:52:38.743Z,96206.00
2018-09-10T21:55:09.804Z,96205.00
2018-09-10T21:57:40.488Z,96200.00
2018-09-10T22:00:11.377Z,96198.00
2018-09-10T22:02:42.150Z,96202.00
2018-09-10T22:05:13.418Z,96204.00
2018-09-10T22:07:44.149Z,96204.00
2018-09-10T22:10:14.971Z,96203.00
2018-09-10T22:12:45.855Z,96200.00
2018-09-10T22:15:16.775Z,96203.00
2018-09-10T22:17:47.767Z,96203.00
2018-09-10T22:20:18.711Z,96211.00
2018-09-10T22:22:49.657Z,96211.00
2018-09-10T22:25:20.681Z,96211.00
2018-09-10T22:27:51.583Z,96213.00
2018-09-10T22:30:22.821Z,96213.00
2018-09-10T22:32:53.797Z,96210.00
2018-09-10T22:35:24.570Z,96214.00
2018-09-10T22:37:55.295Z,96220.00
2018-09-10T22:40:26.095Z,96223.00
2018-09-10T22:42:57.658Z,96230.00
2018-09-10T22:45:28.354Z,96227.00
2018-09-10T22:47:59.102Z,96222.00
2018-09-10T22:50:29.818Z,96222.00
2018-09-10T22:53:00.623Z,96227.00
2018-09-10T22:55:31.394Z,96224.00
2018-09-10T22:58:02.142Z,96228.00
2018-09-10T23:00:32.896Z,96235.00
2018-09-10T23:03:03.636Z,96240.00
2018-09-10T23:05:34.403Z,96240.00
2018-09-10T23:08:05.218Z,96240.00
2018-09-10T23:10:36.018Z,96237.00
2018-09-10T23:13:06.998Z,96243.00
2018-09-10T23:15:37.782Z,96237.00
2018-09-10T23:18:08.586Z,96242.00
2018-09-10T23:20:39.454Z,96241.00
2018-09-10T23:23:11.016Z,96256.00
2018-09-10T23:25:42.770Z,96253.00
2018-09-10T23:28:13.631Z,96257.00
2018-09-10T23:30:44.392Z,96260.00
2018-09-10T23:33:15.109Z,96260.00
2018-09-10T23:35:46.283Z,96252.00
2018-09-10T23:38:17.173Z,96244.00
2018-09-10T23:40:48.066Z,96236.00
2018-09-10T23:43:18.962Z,96243.00
2018-09-10T23:45:49.804Z,96242.00
2018-09-10T23:48:20.691Z,96246.00
2018-09-10T23:50:51.738Z,96249.00
2018-09-10T23:53:22.623Z,96249.00
2018-09-10T23:55:54.071Z,96246.00
2018-09-10T23:58:24.972Z,96246.00
